Scroll down
FLIGHT INFORMATION
American Airlines

AAL1446

At Arrival Gate

KDFW
 KTUL
DATE: 2020-10-13
GATE: A33
GATE DEPARTURE: 13:39
TAKEOFF: 13:54
DATE: 2020-10-13
GATE:  -
LANDING: 14:33
GATE ARRIVAL: 14:45
FLIGHT DATA
Crew: 
Speed: 
421 kts
Altitude: 
25,001 ft
Stage Length: 
206.2 nm
Block Time: 
1.1 hrs
Flight Time: 
0.7 hrs
Fuel Used: 
5,180 lb
Cleared Route: 
TRACK DATA
50,000 ft 1,000 kts
AIRCRAFT INFO AND CUMULATIVE STATS
Aircraft Type: 
B738BW
Registration: 
SELCAL: 
CPBD
MSN/LN: 
33231 / 4563
Operator: 
Total Flights: 
5
Total Block Time: 
5.3 hrs
Total Flight Time: 
4.1 hrs
Total Fuel Time: 
30,267 lb
DATALINK LOG | Newest first | Current as of: 2020-11-25 21:33:02
LABEL SEQUENCE CONTENT Dn/Up
QD583914:45 6.8▼ Dn
QC462814:33▼ Dn
2U1856KOKC 130152Z 00000KT 10SM CLR 15/01 A3007 RMK AO2 SLP178 T01500011 $▲ Up
2U1835KTUL 130153Z 18004KT 10SM CLR 16/06 A3006 RMK AO2 SLP175 T01560061▲ Up
2S3116KOKC▼ Dn
2S3116KTUL▼ Dn
QB075313:54▼ Dn
QA524213:39 12▼ Dn
Q04737[LINK ACK]▲ Up
Q04737[LINK TEST]▼ Dn


AIRCRAFT HISTORY
FLIGHT DATE FLIGHT NO. ORIGIN DESTINATION CLEARED ROUTE BLOCK TIME FLIGHT TIME FUEL USED PILOT
2020-11-04AAL413KDFW KMEM KDFW FORCK ELD KMEM1.5 hrs1.2 hrs8,672 lbCharles Harris
2020-10-15AAL1572KTUL KDFW KTUL PEJAY AXXEE MMANN LKINS SEEVR BRDJE NUSSS YAHBT BOSSI RW17C1.1 hrs0.8 hrs5,852 lbMichael Collier
2020-10-13AAL1446KDFW KTUL 1.1 hrs0.7 hrs5,180 lbMichael Collier
2020-10-13AAL9501KDAL KDFW KDAL RAYMA RW35C0.4 hrs0.2 hrs1,999 lbMichael Collier
2020-08-27AAL2201KMEM KDAL KMEM CHETO MUDHO NIXOE PEPOC CHLDR ANSWA LIT DIRRK KDAL1.5 hrs1.2 hrs8,564 lbRoberto Stopnicki